sensor_id;sensor_type;location;lat;lon;timestamp;temperature;humidity
3086;DHT22;52812;48.960;9.108;2023-11-21T00:01:17;7.70;99.90
3086;DHT22;52812;48.960;9.108;2023-11-21T00:03:43;7.70;99.90
3086;DHT22;52812;48.960;9.108;2023-11-21T00:06:09;7.80;99.90
3086;DHT22;52812;48.960;9.108;2023-11-21T00:08:35;7.70;99.90
3086;DHT22;52812;48.960;9.108;2023-11-21T00:11:01;7.70;99.90
3086;DHT22;52812;48.960;9.108;2023-11-21T00:13:27;7.70;99.90
3086;DHT22;52812;48.960;9.108;2023-11-21T00:15:52;7.70;99.90
3086;DHT22;52812;48.960;9.108;2023-11-21T00:18:18;7.70;99.90
3086;DHT22;52812;48.960;9.108;2023-11-21T00:20:47;7.70;99.90
3086;DHT22;52812;48.960;9.108;2023-11-21T00:23:13;7.70;99.90
3086;DHT22;52812;48.960;9.108;2023-11-21T00:25:39;7.70;99.90
3086;DHT22;52812;48.960;9.108;2023-11-21T00:28:05;7.70;99.90
3086;DHT22;52812;48.960;9.108;2023-11-21T00:30:31;7.70;99.90
3086;DHT22;52812;48.960;9.108;2023-11-21T00:32:57;7.70;99.90
3086;DHT22;52812;48.960;9.108;2023-11-21T00:35:22;7.70;99.90
3086;DHT22;52812;48.960;9.108;2023-11-21T00:37:48;7.70;99.90
3086;DHT22;52812;48.960;9.108;2023-11-21T00:40:15;7.70;99.90
3086;DHT22;52812;48.960;9.108;2023-11-21T00:42:41;7.70;99.90
3086;DHT22;52812;48.960;9.108;2023-11-21T00:45:07;7.70;99.90
3086;DHT22;52812;48.960;9.108;2023-11-21T00:47:33;7.70;99.90
3086;DHT22;52812;48.960;9.108;2023-11-21T00:49:59;7.70;99.90
3086;DHT22;52812;48.960;9.108;2023-11-21T00:52:24;7.70;99.90
3086;DHT22;52812;48.960;9.108;2023-11-21T00:54:50;7.70;99.90
3086;DHT22;52812;48.960;9.108;2023-11-21T00:57:16;7.70;99.90
3086;DHT22;52812;48.960;9.108;2023-11-21T00:59:41;7.70;99.90
3086;DHT22;52812;48.960;9.108;2023-11-21T01:02:07;7.70;99.90
3086;DHT22;52812;48.960;9.108;2023-11-21T01:04:35;7.70;99.90
3086;DHT22;52812;48.960;9.108;2023-11-21T01:07:01;7.70;99.90
3086;DHT22;52812;48.960;9.108;2023-11-21T01:09:26;7.70;99.90
3086;DHT22;52812;48.960;9.108;2023-11-21T01:11:53;7.70;99.90
3086;DHT22;52812;48.960;9.108;2023-11-21T01:14:19;7.70;99.90
3086;DHT22;52812;48.960;9.108;2023-11-21T01:16:44;7.80;99.90
3086;DHT22;52812;48.960;9.108;2023-11-21T01:19:10;7.80;99.90
3086;DHT22;52812;48.960;9.108;2023-11-21T01:21:36;7.80;99.90
3086;DHT22;52812;48.960;9.108;2023-11-21T01:24:01;7.80;99.90
3086;DHT22;52812;48.960;9.108;2023-11-21T01:26:28;7.80;99.90
3086;DHT22;52812;48.960;9.108;2023-11-21T01:28:53;7.80;99.90
3086;DHT22;52812;48.960;9.108;2023-11-21T01:31:20;7.80;99.90
3086;DHT22;52812;48.960;9.108;2023-11-21T01:33:46;7.90;99.90
3086;DHT22;52812;48.960;9.108;2023-11-21T01:36:11;7.90;99.90
3086;DHT22;52812;48.960;9.108;2023-11-21T01:38:37;7.90;99.90
3086;DHT22;52812;48.960;9.108;2023-11-21T01:41:03;7.90;99.90
3086;DHT22;52812;48.960;9.108;2023-11-21T01:43:29;7.90;99.90
3086;DHT22;52812;48.960;9.108;2023-11-21T01:45:57;7.80;99.90
3086;DHT22;52812;48.960;9.108;2023-11-21T01:48:24;7.80;99.90
3086;DHT22;52812;48.960;9.108;2023-11-21T01:50:50;7.90;99.90
3086;DHT22;52812;48.960;9.108;2023-11-21T01:53:16;7.80;99.90
3086;DHT22;52812;48.960;9.108;2023-11-21T01:55:42;7.80;99.90
3086;DHT22;52812;48.960;9.108;2023-11-21T01:58:09;7.90;99.90
3086;DHT22;52812;48.960;9.108;2023-11-21T02:00:37;7.90;99.90
3086;DHT22;52812;48.960;9.108;2023-11-21T02:03:04;7.90;99.90
3086;DHT22;52812;48.960;9.108;2023-11-21T02:05:29;7.90;99.90
3086;DHT22;52812;48.960;9.108;2023-11-21T02:07:55;7.90;99.90
3086;DHT22;52812;48.960;9.108;2023-11-21T02:10:22;7.90;99.90
3086;DHT22;52812;48.960;9.108;2023-11-21T02:12:51;7.90;99.90
3086;DHT22;52812;48.960;9.108;2023-11-21T02:15:18;8.00;99.90
3086;DHT22;52812;48.960;9.108;2023-11-21T02:17:47;8.00;99.90
3086;DHT22;52812;48.960;9.108;2023-11-21T02:20:16;8.00;99.90
3086;DHT22;52812;48.960;9.108;2023-11-21T02:22:48;8.00;99.90
3086;DHT22;52812;48.960;9.108;2023-11-21T02:25:14;8.00;99.90
3086;DHT22;52812;48.960;9.108;2023-11-21T02:27:43;8.10;99.90
3086;DHT22;52812;48.960;9.108;2023-11-21T02:30:09;8.10;99.90
3086;DHT22;52812;48.960;9.108;2023-11-21T02:32:38;8.00;99.90
3086;DHT22;52812;48.960;9.108;2023-11-21T02:35:05;8.10;99.90
3086;DHT22;52812;48.960;9.108;2023-11-21T02:37:33;8.10;99.90
3086;DHT22;52812;48.960;9.108;2023-11-21T02:39:59;8.10;99.90
3086;DHT22;52812;48.960;9.108;2023-11-21T02:42:25;8.10;99.90
3086;DHT22;52812;48.960;9.108;2023-11-21T02:44:50;8.10;99.90
3086;DHT22;52812;48.960;9.108;2023-11-21T02:47:16;8.10;99.90
3086;DHT22;52812;48.960;9.108;2023-11-21T02:49:42;8.10;99.90
3086;DHT22;52812;48.960;9.108;2023-11-21T02:52:07;8.10;99.90
3086;DHT22;52812;48.960;9.108;2023-11-21T02:54:34;8.10;99.90
3086;DHT22;52812;48.960;9.108;2023-11-21T02:57:02;8.10;99.90
3086;DHT22;52812;48.960;9.108;2023-11-21T02:59:27;8.10;99.90
3086;DHT22;52812;48.960;9.108;2023-11-21T03:01:53;8.10;99.90
3086;DHT22;52812;48.960;9.108;2023-11-21T03:04:19;8.10;99.90
3086;DHT22;52812;48.960;9.108;2023-11-21T03:06:45;8.00;99.90
3086;DHT22;52812;48.960;9.108;2023-11-21T03:09:11;8.10;99.90
3086;DHT22;52812;48.960;9.108;2023-11-21T03:11:39;8.10;99.90
3086;DHT22;52812;48.960;9.108;2023-11-21T03:14:05;8.10;99.90
3086;DHT22;52812;48.960;9.108;2023-11-21T03:16:32;8.10;99.90
3086;DHT22;52812;48.960;9.108;2023-11-21T03:18:57;8.10;99.90
3086;DHT22;52812;48.960;9.108;2023-11-21T03:21:24;8.10;99.90
3086;DHT22;52812;48.960;9.108;2023-11-21T03:23:50;8.10;99.90
3086;DHT22;52812;48.960;9.108;2023-11-21T03:26:16;8.10;99.90
3086;DHT22;52812;48.960;9.108;2023-11-21T03:28:42;8.10;99.90
3086;DHT22;52812;48.960;9.108;2023-11-21T03:31:07;8.10;99.90
3086;DHT22;52812;48.960;9.108;2023-11-21T03:33:35;8.10;99.90
3086;DHT22;52812;48.960;9.108;2023-11-21T03:36:01;8.00;99.90
3086;DHT22;52812;48.960;9.108;2023-11-21T03:38:26;8.00;99.90
3086;DHT22;52812;48.960;9.108;2023-11-21T03:40:52;8.00;99.90
3086;DHT22;52812;48.960;9.108;2023-11-21T03:43:18;8.00;99.90
3086;DHT22;52812;48.960;9.108;2023-11-21T03:45:44;7.90;99.90
3086;DHT22;52812;48.960;9.108;2023-11-21T03:48:12;7.90;99.90
3086;DHT22;52812;48.960;9.108;2023-11-21T03:50:38;7.90;99.90
3086;DHT22;52812;48.960;9.108;2023-11-21T03:53:04;7.90;99.90
3086;DHT22;52812;48.960;9.108;2023-11-21T03:55:29;7.90;99.90
3086;DHT22;52812;48.960;9.108;2023-11-21T03:57:57;7.90;99.90
3086;DHT22;52812;48.960;9.108;2023-11-21T04:00:23;7.90;99.90
3086;DHT22;52812;48.960;9.108;2023-11-21T04:02:49;7.90;99.90
3086;DHT22;52812;48.960;9.108;2023-11-21T04:05:17;7.90;99.90
3086;DHT22;52812;48.960;9.108;2023-11-21T04:07:42;7.90;99.90
3086;DHT22;52812;48.960;9.108;2023-11-21T04:10:08;7.90;99.90
3086;DHT22;52812;48.960;9.108;2023-11-21T04:12:35;7.90;99.90
3086;DHT22;52812;48.960;9.108;2023-11-21T04:15:01;7.90;99.90
3086;DHT22;52812;48.960;9.108;2023-11-21T04:17:27;7.90;99.90
3086;DHT22;52812;48.960;9.108;2023-11-21T04:19:52;7.90;99.90
3086;DHT22;52812;48.960;9.108;2023-11-21T04:22:18;7.90;99.90
3086;DHT22;52812;48.960;9.108;2023-11-21T04:24:43;7.80;99.90
3086;DHT22;52812;48.960;9.108;2023-11-21T04:27:09;7.90;99.90
3086;DHT22;52812;48.960;9.108;2023-11-21T04:29:35;7.90;99.90
3086;DHT22;52812;48.960;9.108;2023-11-21T04:32:01;7.80;99.90
3086;DHT22;52812;48.960;9.108;2023-11-21T04:34:28;7.90;99.90
3086;DHT22;52812;48.960;9.108;2023-11-21T04:36:56;7.90;99.90
3086;DHT22;52812;48.960;9.108;2023-11-21T04:39:22;7.80;99.90
3086;DHT22;52812;48.960;9.108;2023-11-21T04:41:48;7.90;99.90
3086;DHT22;52812;48.960;9.108;2023-11-21T04:44:13;7.90;99.90
3086;DHT22;52812;48.960;9.108;2023-11-21T04:46:39;7.90;99.90
3086;DHT22;52812;48.960;9.108;2023-11-21T04:49:04;7.90;99.90
3086;DHT22;52812;48.960;9.108;2023-11-21T04:51:30;7.90;99.90
3086;DHT22;52812;48.960;9.108;2023-11-21T04:53:57;7.90;99.90
3086;DHT22;52812;48.960;9.108;2023-11-21T04:56:23;7.90;99.90
3086;DHT22;52812;48.960;9.108;2023-11-21T04:58:48;7.90;99.90
3086;DHT22;52812;48.960;9.108;2023-11-21T05:01:14;8.00;99.90
3086;DHT22;52812;48.960;9.108;2023-11-21T05:03:40;7.90;99.90
3086;DHT22;52812;48.960;9.108;2023-11-21T05:06:06;7.90;99.90
3086;DHT22;52812;48.960;9.108;2023-11-21T05:08:32;7.90;99.90
3086;DHT22;52812;48.960;9.108;2023-11-21T05:10:57;7.90;99.90
3086;DHT22;52812;48.960;9.108;2023-11-21T05:13:23;7.90;99.90
3086;DHT22;52812;48.960;9.108;2023-11-21T05:15:55;7.90;99.90
3086;DHT22;52812;48.960;9.108;2023-11-21T05:18:24;7.90;99.90
3086;DHT22;52812;48.960;9.108;2023-11-21T05:20:52;7.90;99.90
3086;DHT22;52812;48.960;9.108;2023-11-21T05:23:19;7.80;99.90
3086;DHT22;52812;48.960;9.108;2023-11-21T05:25:44;7.80;99.90
3086;DHT22;52812;48.960;9.108;2023-11-21T05:28:11;7.90;99.90
3086;DHT22;52812;48.960;9.108;2023-11-21T05:30:37;7.80;99.90
3086;DHT22;52812;48.960;9.108;2023-11-21T05:33:04;7.80;99.90
3086;DHT22;52812;48.960;9.108;2023-11-21T05:35:30;7.80;99.90
3086;DHT22;52812;48.960;9.108;2023-11-21T05:37:56;7.90;99.90
3086;DHT22;52812;48.960;9.108;2023-11-21T05:40:22;7.90;99.90
3086;DHT22;52812;48.960;9.108;2023-11-21T05:42:48;7.90;99.90
3086;DHT22;52812;48.960;9.108;2023-11-21T05:45:14;7.90;99.90
3086;DHT22;52812;48.960;9.108;2023-11-21T05:47:44;7.90;99.90
3086;DHT22;52812;48.960;9.108;2023-11-21T05:50:12;7.80;99.90
3086;DHT22;52812;48.960;9.108;2023-11-21T05:52:41;7.90;99.90
3086;DHT22;52812;48.960;9.108;2023-11-21T05:55:07;7.90;99.90
3086;DHT22;52812;48.960;9.108;2023-11-21T05:57:38;7.80;99.90
3086;DHT22;52812;48.960;9.108;2023-11-21T06:00:11;7.80;99.90
3086;DHT22;52812;48.960;9.108;2023-11-21T06:02:40;7.80;99.90
3086;DHT22;52812;48.960;9.108;2023-11-21T06:05:07;7.80;99.90
3086;DHT22;52812;48.960;9.108;2023-11-21T06:07:33;7.80;99.90
3086;DHT22;52812;48.960;9.108;2023-11-21T06:09:59;7.80;99.90
3086;DHT22;52812;48.960;9.108;2023-11-21T06:12:24;7.80;99.90
3086;DHT22;52812;48.960;9.108;2023-11-21T06:14:50;7.80;99.90
3086;DHT22;52812;48.960;9.108;2023-11-21T06:17:16;7.80;99.90
3086;DHT22;52812;48.960;9.108;2023-11-21T06:19:43;7.80;99.90
3086;DHT22;52812;48.960;9.108;2023-11-21T06:22:11;7.80;99.90
3086;DHT22;52812;48.960;9.108;2023-11-21T06:24:36;7.80;99.90
3086;DHT22;52812;48.960;9.108;2023-11-21T06:27:04;7.80;99.90
3086;DHT22;52812;48.960;9.108;2023-11-21T06:29:30;7.80;99.90
3086;DHT22;52812;48.960;9.108;2023-11-21T06:31:57;7.80;99.90
3086;DHT22;52812;48.960;9.108;2023-11-21T06:34:23;7.80;99.90
3086;DHT22;52812;48.960;9.108;2023-11-21T06:36:49;7.80;99.90
3086;DHT22;52812;48.960;9.108;2023-11-21T06:39:15;7.80;99.90
3086;DHT22;52812;48.960;9.108;2023-11-21T06:41:42;7.80;99.90
3086;DHT22;52812;48.960;9.108;2023-11-21T06:44:08;7.80;99.90
3086;DHT22;52812;48.960;9.108;2023-11-21T06:46:34;7.90;99.90
3086;DHT22;52812;48.960;9.108;2023-11-21T06:48:59;7.90;99.90
3086;DHT22;52812;48.960;9.108;2023-11-21T06:51:25;7.90;99.90
3086;DHT22;52812;48.960;9.108;2023-11-21T06:53:51;7.90;99.90
3086;DHT22;52812;48.960;9.108;2023-11-21T06:56:20;7.80;99.90
3086;DHT22;52812;48.960;9.108;2023-11-21T06:58:46;7.80;99.90
3086;DHT22;52812;48.960;9.108;2023-11-21T07:01:12;7.80;99.90
3086;DHT22;52812;48.960;9.108;2023-11-21T07:03:39;7.90;99.90
3086;DHT22;52812;48.960;9.108;2023-11-21T07:06:05;7.90;99.90
3086;DHT22;52812;48.960;9.108;2023-11-21T07:08:31;7.90;99.90
3086;DHT22;52812;48.960;9.108;2023-11-21T07:10:56;7.90;99.90
3086;DHT22;52812;48.960;9.108;2023-11-21T07:13:22;7.90;99.90
3086;DHT22;52812;48.960;9.108;2023-11-21T07:15:48;7.90;99.90
3086;DHT22;52812;48.960;9.108;2023-11-21T07:18:14;8.00;99.90
3086;DHT22;52812;48.960;9.108;2023-11-21T07:20:40;8.00;99.90
3086;DHT22;52812;48.960;9.108;2023-11-21T07:23:05;8.00;99.90
3086;DHT22;52812;48.960;9.108;2023-11-21T07:25:32;8.00;99.90
3086;DHT22;52812;48.960;9.108;2023-11-21T07:27:59;8.10;99.90
3086;DHT22;52812;48.960;9.108;2023-11-21T07:30:25;8.10;99.90
3086;DHT22;52812;48.960;9.108;2023-11-21T07:32:50;8.20;99.90
3086;DHT22;52812;48.960;9.108;2023-11-21T07:35:16;8.30;99.90
3086;DHT22;52812;48.960;9.108;2023-11-21T07:37:42;8.30;99.90
3086;DHT22;52812;48.960;9.108;2023-11-21T07:40:08;8.40;99.90
3086;DHT22;52812;48.960;9.108;2023-11-21T07:42:34;8.30;99.90
3086;DHT22;52812;48.960;9.108;2023-11-21T07:45:00;8.40;99.90
3086;DHT22;52812;48.960;9.108;2023-11-21T07:47:26;8.40;99.90
3086;DHT22;52812;48.960;9.108;2023-11-21T07:49:53;8.40;99.90
3086;DHT22;52812;48.960;9.108;2023-11-21T07:52:21;8.40;99.90
3086;DHT22;52812;48.960;9.108;2023-11-21T07:54:47;8.50;99.90
3086;DHT22;52812;48.960;9.108;2023-11-21T07:57:13;8.50;99.90
3086;DHT22;52812;48.960;9.108;2023-11-21T07:59:39;8.50;99.90
3086;DHT22;52812;48.960;9.108;2023-11-21T08:02:06;8.50;99.90
3086;DHT22;52812;48.960;9.108;2023-11-21T08:04:32;8.60;99.90
3086;DHT22;52812;48.960;9.108;2023-11-21T08:07:02;8.70;99.90
3086;DHT22;52812;48.960;9.108;2023-11-21T08:09:29;8.70;99.90
3086;DHT22;52812;48.960;9.108;2023-11-21T08:11:55;8.80;99.90
3086;DHT22;52812;48.960;9.108;2023-11-21T08:14:22;8.80;99.90
3086;DHT22;52812;48.960;9.108;2023-11-21T08:16:47;8.90;99.90
3086;DHT22;52812;48.960;9.108;2023-11-21T08:19:13;8.90;99.90
3086;DHT22;52812;48.960;9.108;2023-11-21T08:21:39;9.00;99.90
3086;DHT22;52812;48.960;9.108;2023-11-21T08:24:08;9.00;99.90
3086;DHT22;52812;48.960;9.108;2023-11-21T08:26:36;9.00;99.90
3086;DHT22;52812;48.960;9.108;2023-11-21T08:29:02;9.00;99.90
3086;DHT22;52812;48.960;9.108;2023-11-21T08:31:28;9.00;99.90
3086;DHT22;52812;48.960;9.108;2023-11-21T08:33:55;9.00;99.90
3086;DHT22;52812;48.960;9.108;2023-11-21T08:36:23;9.10;99.90
3086;DHT22;52812;48.960;9.108;2023-11-21T08:38:52;9.00;99.90
3086;DHT22;52812;48.960;9.108;2023-11-21T08:41:18;9.00;99.90
3086;DHT22;52812;48.960;9.108;2023-11-21T08:43:47;8.90;99.90
3086;DHT22;52812;48.960;9.108;2023-11-21T08:46:14;8.90;99.90
3086;DHT22;52812;48.960;9.108;2023-11-21T08:48:40;8.90;99.90
3086;DHT22;52812;48.960;9.108;2023-11-21T08:51:06;9.00;99.90
3086;DHT22;52812;48.960;9.108;2023-11-21T08:53:32;8.90;99.90
3086;DHT22;52812;48.960;9.108;2023-11-21T08:55:58;9.00;99.90
3086;DHT22;52812;48.960;9.108;2023-11-21T08:58:24;9.10;99.90
3086;DHT22;52812;48.960;9.108;2023-11-21T09:00:49;9.00;99.90
3086;DHT22;52812;48.960;9.108;2023-11-21T09:03:15;9.10;99.90
3086;DHT22;52812;48.960;9.108;2023-11-21T09:05:41;9.10;99.90
3086;DHT22;52812;48.960;9.108;2023-11-21T09:08:06;9.10;99.90
3086;DHT22;52812;48.960;9.108;2023-11-21T09:10:34;9.10;99.90
3086;DHT22;52812;48.960;9.108;2023-11-21T09:13:04;9.10;99.90
3086;DHT22;52812;48.960;9.108;2023-11-21T09:15:30;9.20;99.90
3086;DHT22;52812;48.960;9.108;2023-11-21T09:17:56;9.20;99.90
3086;DHT22;52812;48.960;9.108;2023-11-21T09:20:21;9.20;99.90
3086;DHT22;52812;48.960;9.108;2023-11-21T09:22:51;9.30;99.90
3086;DHT22;52812;48.960;9.108;2023-11-21T09:25:17;9.30;99.90
3086;DHT22;52812;48.960;9.108;2023-11-21T09:27:45;9.40;99.90
3086;DHT22;52812;48.960;9.108;2023-11-21T09:30:11;9.40;99.90
3086;DHT22;52812;48.960;9.108;2023-11-21T09:32:39;9.40;99.90
3086;DHT22;52812;48.960;9.108;2023-11-21T09:35:06;9.40;99.90
3086;DHT22;52812;48.960;9.108;2023-11-21T09:37:34;9.40;99.90
3086;DHT22;52812;48.960;9.108;2023-11-21T09:39:59;9.40;99.90
3086;DHT22;52812;48.960;9.108;2023-11-21T09:42:39;9.40;99.90
3086;DHT22;52812;48.960;9.108;2023-11-21T09:45:15;9.40;99.90
3086;DHT22;52812;48.960;9.108;2023-11-21T09:47:43;9.40;99.90
3086;DHT22;52812;48.960;9.108;2023-11-21T09:50:09;9.50;99.90
3086;DHT22;52812;48.960;9.108;2023-11-21T09:55:27;9.50;99.90
3086;DHT22;52812;48.960;9.108;2023-11-21T09:57:56;9.60;99.90
3086;DHT22;52812;48.960;9.108;2023-11-21T10:00:22;9.70;99.90
3086;DHT22;52812;48.960;9.108;2023-11-21T10:02:49;9.80;99.90
3086;DHT22;52812;48.960;9.108;2023-11-21T10:05:15;9.80;99.90
3086;DHT22;52812;48.960;9.108;2023-11-21T10:07:43;9.90;99.90
3086;DHT22;52812;48.960;9.108;2023-11-21T10:10:15;10.00;99.90
3086;DHT22;52812;48.960;9.108;2023-11-21T10:12:42;10.30;99.90
3086;DHT22;52812;48.960;9.108;2023-11-21T10:15:11;10.50;99.90
3086;DHT22;52812;48.960;9.108;2023-11-21T10:17:42;10.60;99.90
3086;DHT22;52812;48.960;9.108;2023-11-21T10:20:14;10.70;99.90
3086;DHT22;52812;48.960;9.108;2023-11-21T10:22:43;10.70;99.90
3086;DHT22;52812;48.960;9.108;2023-11-21T10:25:12;10.70;99.90
3086;DHT22;52812;48.960;9.108;2023-11-21T10:27:42;10.70;99.90
3086;DHT22;52812;48.960;9.108;2023-11-21T10:30:09;10.70;99.90
3086;DHT22;52812;48.960;9.108;2023-11-21T10:32:39;10.50;99.90
3086;DHT22;52812;48.960;9.108;2023-11-21T10:35:07;10.50;99.90
3086;DHT22;52812;48.960;9.108;2023-11-21T10:37:36;10.40;99.90
3086;DHT22;52812;48.960;9.108;2023-11-21T10:40:11;10.30;99.90
3086;DHT22;52812;48.960;9.108;2023-11-21T10:42:40;10.30;99.90
3086;DHT22;52812;48.960;9.108;2023-11-21T10:45:08;10.20;99.90
3086;DHT22;52812;48.960;9.108;2023-11-21T10:47:44;10.10;99.90
3086;DHT22;52812;48.960;9.108;2023-11-21T10:50:10;10.10;99.90
3086;DHT22;52812;48.960;9.108;2023-11-21T10:52:40;10.00;99.90
3086;DHT22;52812;48.960;9.108;2023-11-21T10:55:18;10.00;99.90
3086;DHT22;52812;48.960;9.108;2023-11-21T10:57:48;10.00;99.90
3086;DHT22;52812;48.960;9.108;2023-11-21T11:00:16;9.90;99.90
3086;DHT22;52812;48.960;9.108;2023-11-21T11:02:44;9.90;99.90
3086;DHT22;52812;48.960;9.108;2023-11-21T11:05:14;9.90;99.90
3086;DHT22;52812;48.960;9.108;2023-11-21T11:07:42;9.90;99.90
3086;DHT22;52812;48.960;9.108;2023-11-21T11:10:09;9.90;99.90
3086;DHT22;52812;48.960;9.108;2023-11-21T11:12:41;9.90;99.90
3086;DHT22;52812;48.960;9.108;2023-11-21T11:15:08;9.90;99.90
3086;DHT22;52812;48.960;9.108;2023-11-21T11:17:36;10.00;99.90
3086;DHT22;52812;48.960;9.108;2023-11-21T11:20:05;10.00;99.90
3086;DHT22;52812;48.960;9.108;2023-11-21T11:28:20;10.20;99.90
3086;DHT22;52812;48.960;9.108;2023-11-21T11:33:54;10.40;99.90
3086;DHT22;52812;48.960;9.108;2023-11-21T11:36:55;10.50;99.90
3086;DHT22;52812;48.960;9.108;2023-11-21T11:39:30;10.50;99.90
3086;DHT22;52812;48.960;9.108;2023-11-21T11:41:57;10.60;99.90
3086;DHT22;52812;48.960;9.108;2023-11-21T11:47:15;10.60;99.90
3086;DHT22;52812;48.960;9.108;2023-11-21T11:50:07;10.70;99.90
3086;DHT22;52812;48.960;9.108;2023-11-21T11:52:54;10.90;99.90
3086;DHT22;52812;48.960;9.108;2023-11-21T11:55:24;11.00;99.90
3086;DHT22;52812;48.960;9.108;2023-11-21T11:57:52;11.10;99.90
3086;DHT22;52812;48.960;9.108;2023-11-21T12:03:00;11.30;99.90
3086;DHT22;52812;48.960;9.108;2023-11-21T12:05:32;11.30;99.90
3086;DHT22;52812;48.960;9.108;2023-11-21T12:08:04;11.20;99.90
3086;DHT22;52812;48.960;9.108;2023-11-21T12:10:35;11.10;99.90
3086;DHT22;52812;48.960;9.108;2023-11-21T12:13:07;10.90;99.90
3086;DHT22;52812;48.960;9.108;2023-11-21T12:15:34;10.60;99.90
3086;DHT22;52812;48.960;9.108;2023-11-21T12:18:00;10.10;99.90
3086;DHT22;52812;48.960;9.108;2023-11-21T12:20:27;10.00;99.90
3086;DHT22;52812;48.960;9.108;2023-11-21T12:22:54;9.90;99.90
3086;DHT22;52812;48.960;9.108;2023-11-21T12:25:25;9.70;99.90
3086;DHT22;52812;48.960;9.108;2023-11-21T12:27:55;9.60;99.90
3086;DHT22;52812;48.960;9.108;2023-11-21T12:30:23;9.60;99.90
3086;DHT22;52812;48.960;9.108;2023-11-21T12:32:53;9.50;99.90
3086;DHT22;52812;48.960;9.108;2023-11-21T12:35:24;9.50;99.90
3086;DHT22;52812;48.960;9.108;2023-11-21T12:37:52;9.40;99.90
3086;DHT22;52812;48.960;9.108;2023-11-21T12:40:19;9.40;99.90
3086;DHT22;52812;48.960;9.108;2023-11-21T12:42:46;9.40;99.90
3086;DHT22;52812;48.960;9.108;2023-11-21T12:47:59;9.50;99.90
3086;DHT22;52812;48.960;9.108;2023-11-21T12:50:30;9.50;99.90
3086;DHT22;52812;48.960;9.108;2023-11-21T12:53:07;9.50;99.90
3086;DHT22;52812;48.960;9.108;2023-11-21T12:55:34;9.60;99.90
3086;DHT22;52812;48.960;9.108;2023-11-21T12:58:05;9.60;99.90
3086;DHT22;52812;48.960;9.108;2023-11-21T13:00:48;9.60;99.90
3086;DHT22;52812;48.960;9.108;2023-11-21T13:03:15;9.70;99.90
3086;DHT22;52812;48.960;9.108;2023-11-21T13:05:44;9.70;99.90
3086;DHT22;52812;48.960;9.108;2023-11-21T13:08:11;9.70;99.90
3086;DHT22;52812;48.960;9.108;2023-11-21T13:10:45;9.60;99.90
3086;DHT22;52812;48.960;9.108;2023-11-21T13:13:13;9.60;99.90
3086;DHT22;52812;48.960;9.108;2023-11-21T13:15:55;9.60;99.90
3086;DHT22;52812;48.960;9.108;2023-11-21T13:18:24;9.50;99.90
3086;DHT22;52812;48.960;9.108;2023-11-21T13:20:56;9.40;99.90
3086;DHT22;52812;48.960;9.108;2023-11-21T13:23:22;9.50;99.90
3086;DHT22;52812;48.960;9.108;2023-11-21T13:25:48;9.50;99.90
3086;DHT22;52812;48.960;9.108;2023-11-21T13:28:15;9.50;99.90
3086;DHT22;52812;48.960;9.108;2023-11-21T13:30:43;9.50;99.90
3086;DHT22;52812;48.960;9.108;2023-11-21T13:33:10;9.60;99.90
3086;DHT22;52812;48.960;9.108;2023-11-21T13:35:43;9.60;99.90
3086;DHT22;52812;48.960;9.108;2023-11-21T13:38:15;9.60;99.90
3086;DHT22;52812;48.960;9.108;2023-11-21T13:40:49;9.70;99.90
3086;DHT22;52812;48.960;9.108;2023-11-21T13:43:22;9.70;99.90
3086;DHT22;52812;48.960;9.108;2023-11-21T13:45:50;9.80;99.90
3086;DHT22;52812;48.960;9.108;2023-11-21T13:48:26;9.90;99.90
3086;DHT22;52812;48.960;9.108;2023-11-21T13:51:06;9.90;99.90
3086;DHT22;52812;48.960;9.108;2023-11-21T13:53:46;9.90;99.90
3086;DHT22;52812;48.960;9.108;2023-11-21T13:56:15;9.90;99.90
3086;DHT22;52812;48.960;9.108;2023-11-21T13:58:49;9.90;99.90
3086;DHT22;52812;48.960;9.108;2023-11-21T14:01:20;9.90;99.90
3086;DHT22;52812;48.960;9.108;2023-11-21T14:04:17;9.80;99.90
3086;DHT22;52812;48.960;9.108;2023-11-21T14:06:43;9.70;99.90
3086;DHT22;52812;48.960;9.108;2023-11-21T14:09:18;9.70;99.90
3086;DHT22;52812;48.960;9.108;2023-11-21T14:12:01;9.70;99.90
3086;DHT22;52812;48.960;9.108;2023-11-21T14:14:31;9.70;99.90
3086;DHT22;52812;48.960;9.108;2023-11-21T14:16:57;9.70;99.90
3086;DHT22;52812;48.960;9.108;2023-11-21T14:19:24;9.60;99.90
3086;DHT22;52812;48.960;9.108;2023-11-21T14:21:53;9.60;99.90
3086;DHT22;52812;48.960;9.108;2023-11-21T14:24:19;9.60;99.90
3086;DHT22;52812;48.960;9.108;2023-11-21T14:26:46;9.60;99.90
3086;DHT22;52812;48.960;9.108;2023-11-21T14:29:13;9.50;99.90
3086;DHT22;52812;48.960;9.108;2023-11-21T14:31:41;9.50;99.90
3086;DHT22;52812;48.960;9.108;2023-11-21T14:34:07;9.50;99.90
3086;DHT22;52812;48.960;9.108;2023-11-21T14:36:36;9.50;99.90
3086;DHT22;52812;48.960;9.108;2023-11-21T14:39:04;9.40;99.90
3086;DHT22;52812;48.960;9.108;2023-11-21T14:41:46;9.40;99.90
3086;DHT22;52812;48.960;9.108;2023-11-21T14:44:12;9.30;99.90
3086;DHT22;52812;48.960;9.108;2023-11-21T14:46:39;9.20;99.90
3086;DHT22;52812;48.960;9.108;2023-11-21T14:49:08;9.20;99.90
3086;DHT22;52812;48.960;9.108;2023-11-21T14:51:53;9.10;99.90
3086;DHT22;52812;48.960;9.108;2023-11-21T14:54:30;9.00;99.90
3086;DHT22;52812;48.960;9.108;2023-11-21T14:57:14;8.90;99.90
3086;DHT22;52812;48.960;9.108;2023-11-21T14:59:48;8.80;99.90
3086;DHT22;52812;48.960;9.108;2023-11-21T15:02:18;8.70;99.90
3086;DHT22;52812;48.960;9.108;2023-11-21T15:04:51;8.70;99.90
3086;DHT22;52812;48.960;9.108;2023-11-21T15:07:26;8.60;99.90
3086;DHT22;52812;48.960;9.108;2023-11-21T15:09:53;8.60;99.90
3086;DHT22;52812;48.960;9.108;2023-11-21T15:12:19;8.60;99.90
3086;DHT22;52812;48.960;9.108;2023-11-21T15:14:48;8.60;99.90
3086;DHT22;52812;48.960;9.108;2023-11-21T15:17:18;8.60;99.90
3086;DHT22;52812;48.960;9.108;2023-11-21T15:19:56;8.60;99.90
3086;DHT22;52812;48.960;9.108;2023-11-21T15:22:22;8.60;99.90
3086;DHT22;52812;48.960;9.108;2023-11-21T15:24:48;8.60;99.90
3086;DHT22;52812;48.960;9.108;2023-11-21T15:27:15;8.60;99.90
3086;DHT22;52812;48.960;9.108;2023-11-21T15:29:42;8.60;99.90
3086;DHT22;52812;48.960;9.108;2023-11-21T15:32:09;8.60;99.90
3086;DHT22;52812;48.960;9.108;2023-11-21T15:34:36;8.60;99.90
3086;DHT22;52812;48.960;9.108;2023-11-21T15:37:03;8.60;99.90
3086;DHT22;52812;48.960;9.108;2023-11-21T15:39:30;8.50;99.90
3086;DHT22;52812;48.960;9.108;2023-11-21T15:42:00;8.50;99.90
3086;DHT22;52812;48.960;9.108;2023-11-21T15:44:26;8.40;99.90
3086;DHT22;52812;48.960;9.108;2023-11-21T15:46:53;8.30;99.90
3086;DHT22;52812;48.960;9.108;2023-11-21T15:49:18;8.40;99.90
3086;DHT22;52812;48.960;9.108;2023-11-21T15:51:48;8.30;99.90
3086;DHT22;52812;48.960;9.108;2023-11-21T15:54:22;8.30;99.90
3086;DHT22;52812;48.960;9.108;2023-11-21T15:56:48;8.30;99.90
3086;DHT22;52812;48.960;9.108;2023-11-21T15:59:14;8.20;99.90
3086;DHT22;52812;48.960;9.108;2023-11-21T16:01:42;8.20;99.90
3086;DHT22;52812;48.960;9.108;2023-11-21T16:04:10;8.10;99.90
3086;DHT22;52812;48.960;9.108;2023-11-21T16:06:37;8.00;99.90
3086;DHT22;52812;48.960;9.108;2023-11-21T16:09:05;8.00;99.90
3086;DHT22;52812;48.960;9.108;2023-11-21T16:11:31;8.00;99.90
3086;DHT22;52812;48.960;9.108;2023-11-21T16:13:59;7.90;99.90
3086;DHT22;52812;48.960;9.108;2023-11-21T16:16:25;7.80;99.90
3086;DHT22;52812;48.960;9.108;2023-11-21T16:18:50;7.80;99.90
3086;DHT22;52812;48.960;9.108;2023-11-21T16:21:16;7.70;99.90
3086;DHT22;52812;48.960;9.108;2023-11-21T16:23:42;7.60;99.90